createdAt,value
2018-12-21T00:00:57.846Z,110.67
2018-12-21T00:03:24.060Z,108.93
2018-12-21T00:05:50.427Z,108.30
2018-12-21T00:08:16.673Z,112.47
2018-12-21T00:10:43.055Z,110.73
2018-12-21T00:13:09.324Z,108.17
2018-12-21T00:15:35.810Z,108.80
2018-12-21T00:18:02.293Z,109.17
2018-12-21T00:20:29.927Z,115.30
2018-12-21T00:22:56.222Z,112.83
2018-12-21T00:25:22.628Z,112.67
2018-12-21T00:27:49.649Z,109.77
2018-12-21T00:30:17.922Z,110.53
2018-12-21T00:32:50.384Z,116.90
2018-12-21T00:35:22.978Z,112.27
2018-12-21T00:37:55.523Z,110.07
2018-12-21T00:40:28.060Z,110.67
2018-12-21T00:46:00.173Z,113.97
2018-12-21T00:48:26.555Z,117.63
2018-12-21T00:50:52.833Z,111.47
2018-12-21T00:53:19.744Z,110.40
2018-12-21T00:55:46.136Z,110.60
2018-12-21T00:58:12.481Z,112.63
2018-12-21T01:00:38.834Z,112.00
2018-12-21T01:03:06.631Z,111.87
2018-12-21T01:05:33.334Z,113.70
2018-12-21T01:07:59.636Z,110.83
2018-12-21T01:10:26.024Z,111.17
2018-12-21T01:12:52.418Z,114.57
2018-12-21T01:15:18.899Z,110.43
2018-12-21T01:17:45.298Z,108.23
2018-12-21T01:20:11.878Z,114.67
2018-12-21T01:22:38.227Z,110.27
2018-12-21T01:25:04.720Z,110.47
2018-12-21T01:27:31.154Z,116.23
2018-12-21T01:29:57.435Z,111.80
2018-12-21T01:32:23.785Z,112.07
2018-12-21T01:34:50.139Z,111.67
2018-12-21T01:37:16.555Z,113.00
2018-12-21T01:39:42.868Z,114.97
2018-12-21T01:42:09.160Z,113.43
2018-12-21T01:44:35.387Z,111.77
2018-12-21T01:47:01.726Z,109.87
2018-12-21T01:49:28.090Z,110.47
2018-12-21T01:51:54.411Z,110.67
2018-12-21T01:54:20.742Z,107.40
2018-12-21T01:56:47.084Z,109.70
2018-12-21T01:59:13.400Z,109.53
2018-12-21T02:01:39.774Z,114.67
2018-12-21T02:04:06.083Z,108.50
2018-12-21T02:06:32.382Z,107.23
2018-12-21T02:08:58.727Z,106.70
2018-12-21T02:11:25.064Z,109.30
2018-12-21T02:13:51.274Z,107.10
2018-12-21T02:16:17.599Z,105.10
2018-12-21T02:18:43.937Z,104.90
2018-12-21T02:21:10.418Z,105.40
2018-12-21T02:23:36.775Z,103.70
2018-12-21T02:26:03.202Z,103.67
2018-12-21T02:28:29.555Z,103.83
2018-12-21T02:30:55.836Z,112.30
2018-12-21T02:33:22.219Z,110.50
2018-12-21T02:35:48.538Z,108.70
2018-12-21T02:38:14.918Z,110.93
2018-12-21T02:40:41.201Z,106.07
2018-12-21T02:43:07.554Z,103.50
2018-12-21T02:45:33.765Z,112.03
2018-12-21T02:48:00.110Z,103.50
2018-12-21T02:50:26.432Z,111.33
2018-12-21T02:52:52.758Z,104.90
2018-12-21T02:55:19.031Z,105.90
2018-12-21T02:57:45.379Z,102.73
2018-12-21T03:00:11.649Z,104.47
2018-12-21T03:02:38.876Z,103.63
2018-12-21T03:05:05.360Z,102.70
2018-12-21T03:07:31.661Z,102.97
2018-12-21T03:09:58.059Z,102.30
2018-12-21T03:12:24.301Z,102.63
2018-12-21T03:14:50.589Z,102.77
2018-12-21T03:17:16.842Z,102.80
2018-12-21T03:19:43.083Z,104.50
2018-12-21T03:22:14.649Z,107.27
2018-12-21T03:24:37.666Z,102.97
2018-12-21T03:29:56.375Z,104.97
2018-12-21T03:32:22.823Z,104.30
2018-12-21T03:34:49.355Z,107.90
2018-12-21T03:37:15.740Z,104.37
2018-12-21T03:39:41.970Z,105.30
2018-12-21T03:42:08.251Z,104.10
2018-12-21T03:44:34.526Z,106.00
2018-12-21T03:47:00.776Z,107.30
2018-12-21T03:49:27.717Z,106.27
2018-12-21T03:51:53.992Z,110.17
2018-12-21T03:54:20.417Z,106.77
2018-12-21T03:56:46.945Z,108.83
2018-12-21T03:59:13.315Z,109.27
2018-12-21T04:01:39.753Z,107.37
2018-12-21T04:04:07.122Z,110.30
2018-12-21T04:06:33.351Z,107.57
2018-12-21T04:08:59.642Z,106.77
2018-12-21T04:11:25.946Z,108.10
2018-12-21T04:13:52.299Z,108.00
2018-12-21T04:16:19.815Z,107.70
2018-12-21T04:18:46.322Z,108.87
2018-12-21T04:21:12.663Z,105.97
2018-12-21T04:23:39.951Z,112.23
2018-12-21T04:26:06.202Z,108.30
2018-12-21T04:28:32.435Z,107.40
2018-12-21T04:30:58.738Z,108.93
2018-12-21T04:33:24.930Z,106.97
2018-12-21T04:35:51.213Z,109.20
2018-12-21T04:38:17.554Z,108.87
2018-12-21T04:40:43.890Z,106.67
2018-12-21T04:43:10.219Z,109.00
2018-12-21T04:45:36.728Z,109.40
2018-12-21T04:48:03.211Z,108.40
2018-12-21T04:50:29.542Z,108.00
2018-12-21T04:52:55.891Z,110.20
2018-12-21T04:55:22.216Z,109.73
2018-12-21T04:57:48.533Z,111.60
2018-12-21T05:00:14.968Z,106.70
2018-12-21T05:02:41.351Z,109.33
2018-12-21T05:05:07.580Z,110.60
2018-12-21T05:07:34.013Z,112.80
2018-12-21T05:10:00.402Z,109.13
2018-12-21T05:12:26.609Z,118.83
2018-12-21T05:14:52.923Z,107.10
2018-12-21T05:17:19.242Z,111.50
2018-12-21T05:19:45.721Z,108.77
2018-12-21T05:22:12.106Z,106.77
2018-12-21T05:24:38.443Z,112.10
2018-12-21T05:27:05.575Z,109.73
2018-12-21T05:29:31.942Z,110.00
2018-12-21T05:31:59.417Z,116.90
2018-12-21T05:34:25.798Z,109.70
2018-12-21T05:36:52.129Z,112.50
2018-12-21T05:39:18.344Z,115.60
2018-12-21T05:41:44.561Z,111.23
2018-12-21T05:44:11.019Z,113.63
2018-12-21T05:46:37.231Z,112.20
2018-12-21T05:49:03.525Z,111.00
2018-12-21T05:51:29.798Z,113.87
2018-12-21T05:53:56.153Z,112.13
2018-12-21T05:56:22.469Z,117.47
2018-12-21T05:58:48.872Z,112.20
2018-12-21T06:01:15.555Z,120.00
2018-12-21T06:03:41.878Z,112.23
2018-12-21T06:06:08.204Z,112.77
2018-12-21T06:08:35.472Z,118.60
2018-12-21T06:11:01.869Z,114.60
2018-12-21T06:13:28.100Z,115.93
2018-12-21T06:15:54.494Z,112.97
2018-12-21T06:18:21.495Z,124.70
2018-12-21T06:20:47.821Z,116.00
2018-12-21T06:23:14.025Z,113.00
2018-12-21T06:25:40.327Z,114.67
2018-12-21T06:28:06.709Z,113.60
2018-12-21T06:30:33.065Z,114.23
2018-12-21T06:32:59.368Z,118.50
2018-12-21T06:35:26.080Z,117.77
2018-12-21T06:37:52.497Z,111.63
2018-12-21T06:40:18.790Z,112.67
2018-12-21T06:42:45.142Z,112.37
2018-12-21T06:45:11.449Z,113.13
2018-12-21T06:47:37.795Z,111.20
2018-12-21T06:50:05.392Z,116.27
2018-12-21T06:52:31.754Z,126.77
2018-12-21T06:54:57.979Z,114.93
2018-12-21T06:57:24.207Z,125.77
2018-12-21T06:59:50.479Z,119.50
2018-12-21T07:02:16.867Z,114.33
2018-12-21T07:04:43.148Z,111.43
2018-12-21T07:07:09.478Z,115.57
2018-12-21T07:09:35.676Z,116.00
2018-12-21T07:12:01.940Z,118.87
2018-12-21T07:14:28.173Z,118.97
2018-12-21T07:16:54.428Z,110.50
2018-12-21T07:19:20.988Z,112.10
2018-12-21T07:21:47.266Z,112.27
2018-12-21T07:24:13.476Z,111.23
2018-12-21T07:26:39.776Z,114.23
2018-12-21T07:29:05.982Z,111.47
2018-12-21T07:31:32.205Z,111.90
2018-12-21T07:33:58.459Z,109.77
2018-12-21T07:36:24.638Z,111.80
2018-12-21T07:38:50.916Z,110.57
2018-12-21T07:41:17.179Z,115.47
2018-12-21T07:43:43.885Z,108.77
2018-12-21T07:46:10.317Z,112.97
2018-12-21T07:48:36.538Z,112.30
2018-12-21T07:51:03.080Z,111.83
2018-12-21T07:53:35.750Z,109.87
2018-12-21T07:55:57.585Z,111.07
2018-12-21T07:58:23.779Z,113.27
2018-12-21T08:00:49.983Z,108.57
2018-12-21T08:03:16.175Z,115.10
2018-12-21T08:05:42.366Z,111.90
2018-12-21T08:08:08.568Z,110.97
2018-12-21T08:10:34.781Z,110.90
2018-12-21T08:13:01.106Z,114.60
2018-12-21T08:15:27.376Z,111.20
2018-12-21T08:17:53.721Z,111.27
2018-12-21T08:20:19.923Z,114.07
2018-12-21T08:22:46.133Z,115.50
2018-12-21T08:25:12.334Z,111.20
2018-12-21T08:27:38.559Z,111.30
2018-12-21T08:30:07.144Z,111.93
2018-12-21T08:32:33.453Z,119.20
2018-12-21T08:34:59.649Z,110.40
2018-12-21T08:37:25.865Z,113.03
2018-12-21T08:39:52.049Z,114.50
2018-12-21T08:42:18.244Z,110.57
2018-12-21T08:44:44.528Z,111.13
2018-12-21T08:47:10.742Z,112.80
2018-12-21T08:49:37.012Z,112.97
2018-12-21T08:52:03.245Z,108.57
2018-12-21T08:54:29.418Z,109.37
2018-12-21T08:56:55.673Z,110.30
2018-12-21T09:02:14.521Z,110.10
2018-12-21T09:04:40.772Z,108.83
2018-12-21T09:07:06.981Z,110.93
2018-12-21T09:09:33.310Z,107.27
2018-12-21T09:11:59.743Z,114.67
2018-12-21T09:14:26.072Z,112.07
2018-12-21T09:16:52.267Z,109.10
2018-12-21T09:19:19.189Z,120.03
2018-12-21T09:21:45.427Z,109.33
2018-12-21T09:24:11.615Z,109.43
2018-12-21T09:26:37.974Z,110.10
2018-12-21T09:29:04.204Z,109.50
2018-12-21T09:31:30.432Z,113.00
2018-12-21T09:33:56.718Z,115.07
2018-12-21T09:36:22.942Z,106.60
2018-12-21T09:38:49.163Z,114.00
2018-12-21T09:41:15.389Z,106.83
2018-12-21T09:43:41.645Z,112.07
2018-12-21T09:46:08.063Z,109.70
2018-12-21T09:48:34.349Z,114.63
2018-12-21T09:51:00.565Z,110.40
2018-12-21T09:53:27.470Z,116.10
2018-12-21T09:55:53.869Z,114.67
2018-12-21T09:58:20.065Z,109.70
2018-12-21T10:00:46.517Z,107.20
2018-12-21T10:03:12.742Z,112.60
2018-12-21T10:05:39.119Z,108.37
2018-12-21T10:08:05.417Z,109.50
2018-12-21T10:10:31.725Z,106.77
2018-12-21T10:12:57.960Z,112.93
2018-12-21T10:15:24.292Z,110.90
2018-12-21T10:17:50.671Z,107.97
2018-12-21T10:20:19.898Z,115.50
2018-12-21T10:22:45.994Z,105.90
2018-12-21T10:25:12.290Z,108.80
2018-12-21T10:27:38.511Z,107.47
2018-12-21T10:30:08.057Z,106.43
2018-12-21T10:32:34.366Z,106.87
2018-12-21T10:37:53.944Z,107.83
2018-12-21T10:40:20.173Z,107.07
2018-12-21T10:42:46.385Z,104.37
2018-12-21T10:45:12.681Z,109.40
2018-12-21T10:47:39.056Z,108.37
2018-12-21T10:50:08.016Z,104.70
2018-12-21T10:52:34.208Z,109.17
2018-12-21T10:55:00.452Z,104.83
2018-12-21T10:57:26.732Z,104.30
2018-12-21T10:59:52.960Z,104.00
2018-12-21T11:02:19.232Z,105.30
2018-12-21T11:04:45.448Z,104.77
2018-12-21T11:07:11.677Z,104.73
2018-12-21T11:09:38.078Z,105.47
2018-12-21T11:12:04.315Z,104.57
2018-12-21T11:14:30.495Z,106.23
2018-12-21T11:16:56.839Z,104.77
2018-12-21T11:19:23.080Z,105.47
2018-12-21T11:21:49.272Z,105.70
2018-12-21T11:24:15.586Z,108.07
2018-12-21T11:26:41.809Z,105.87
2018-12-21T11:29:08.006Z,106.67
2018-12-21T11:31:34.335Z,104.20
2018-12-21T11:34:00.624Z,110.10
2018-12-21T11:36:27.022Z,108.50
2018-12-21T11:38:53.212Z,104.77
2018-12-21T11:41:19.397Z,109.57
2018-12-21T11:43:45.663Z,103.77
2018-12-21T11:46:11.880Z,104.47
2018-12-21T11:48:38.077Z,104.03
2018-12-21T11:51:04.291Z,103.67
2018-12-21T11:53:30.484Z,104.47
2018-12-21T11:55:57.719Z,104.77
2018-12-21T11:58:23.903Z,107.10
2018-12-21T12:00:50.295Z,104.37
2018-12-21T12:03:16.484Z,105.13
2018-12-21T12:05:42.724Z,105.70
2018-12-21T12:08:08.929Z,106.37
2018-12-21T12:10:35.133Z,104.80
2018-12-21T12:13:01.391Z,106.83
2018-12-21T12:15:28.655Z,110.23
2018-12-21T12:17:55.190Z,104.87
2018-12-21T12:20:21.511Z,105.67
2018-12-21T12:22:47.802Z,104.37
2018-12-21T12:25:14.030Z,104.37
2018-12-21T12:27:40.258Z,103.70
2018-12-21T12:30:08.044Z,103.67
2018-12-21T12:32:34.290Z,104.63
2018-12-21T12:35:00.519Z,106.20
2018-12-21T12:37:27.349Z,103.87
2018-12-21T12:39:53.550Z,104.03
2018-12-21T12:42:19.772Z,105.57
2018-12-21T12:44:46.041Z,103.53
2018-12-21T12:47:12.227Z,104.30
2018-12-21T12:52:31.240Z,103.50
2018-12-21T12:55:02.740Z,104.60
2018-12-21T12:57:25.712Z,103.90
2018-12-21T12:59:51.902Z,104.10
2018-12-21T13:02:18.234Z,103.00
2018-12-21T13:04:44.746Z,105.90
2018-12-21T13:07:10.931Z,104.40
2018-12-21T13:09:37.135Z,105.30
2018-12-21T13:12:03.638Z,103.40
2018-12-21T13:14:30.069Z,106.53
2018-12-21T13:16:56.300Z,105.00
2018-12-21T13:19:23.422Z,105.30
2018-12-21T13:21:49.731Z,105.20
2018-12-21T13:24:15.970Z,103.67
2018-12-21T13:26:42.159Z,105.27
2018-12-21T13:29:08.406Z,104.10
2018-12-21T13:31:35.092Z,103.67
2018-12-21T13:34:01.299Z,103.77
2018-12-21T13:36:27.519Z,105.07
2018-12-21T13:38:53.786Z,104.90
2018-12-21T13:41:20.194Z,104.17
2018-12-21T13:43:46.383Z,104.47
2018-12-21T13:46:12.601Z,104.67
2018-12-21T13:48:38.816Z,104.27
2018-12-21T13:51:12.000Z,103.57
2018-12-21T13:53:38.245Z,107.30
2018-12-21T13:56:04.473Z,103.03
2018-12-21T13:58:30.701Z,107.40
2018-12-21T14:00:56.921Z,105.80
2018-12-21T14:03:23.234Z,103.80
2018-12-21T14:05:49.437Z,103.80
2018-12-21T14:08:15.619Z,104.90
2018-12-21T14:10:42.007Z,107.00
2018-12-21T14:13:08.225Z,104.87
2018-12-21T14:15:34.478Z,106.77
2018-12-21T14:18:00.708Z,104.20
2018-12-21T14:20:27.144Z,107.67
2018-12-21T14:22:54.188Z,105.97
2018-12-21T14:25:28.607Z,106.97
2018-12-21T14:27:48.629Z,106.20
2018-12-21T14:30:14.854Z,104.27
2018-12-21T14:32:41.355Z,106.57
2018-12-21T14:35:07.708Z,106.07
2018-12-21T14:37:34.006Z,107.57
2018-12-21T14:40:00.284Z,106.60
2018-12-21T14:42:27.881Z,108.17
2018-12-21T14:44:54.134Z,105.80
2018-12-21T14:47:21.946Z,106.70
2018-12-21T14:49:48.212Z,106.80
2018-12-21T14:52:14.721Z,107.27
2018-12-21T14:54:41.931Z,106.50
2018-12-21T14:57:08.410Z,108.60
2018-12-21T14:59:34.575Z,108.37
2018-12-21T15:02:00.887Z,108.70
2018-12-21T15:04:27.262Z,109.30
2018-12-21T15:06:53.482Z,111.87
2018-12-21T15:09:19.862Z,114.17
2018-12-21T15:11:46.065Z,109.00
2018-12-21T15:14:12.219Z,114.00
2018-12-21T15:16:38.457Z,115.57
2018-12-21T15:19:04.841Z,112.90
2018-12-21T15:21:31.043Z,113.57
2018-12-21T15:23:57.306Z,121.20
2018-12-21T15:26:23.554Z,121.50
2018-12-21T15:28:49.914Z,110.40
2018-12-21T15:31:16.144Z,114.10
2018-12-21T15:33:42.490Z,109.23
2018-12-21T15:36:08.747Z,113.63
2018-12-21T15:38:35.118Z,117.20
2018-12-21T15:41:01.377Z,114.40
2018-12-21T15:43:27.620Z,113.23
2018-12-21T15:45:53.838Z,111.30
2018-12-21T15:48:20.179Z,107.67
2018-12-21T15:50:47.160Z,108.57
2018-12-21T15:53:14.058Z,110.73
2018-12-21T15:55:40.291Z,108.57
2018-12-21T15:58:06.508Z,108.67
2018-12-21T16:00:32.682Z,110.60
2018-12-21T16:02:59.276Z,109.17
2018-12-21T16:05:25.666Z,111.57
2018-12-21T16:07:52.147Z,109.30
2018-12-21T16:10:19.041Z,110.43
2018-12-21T16:12:45.433Z,109.50
2018-12-21T16:15:11.659Z,110.10
2018-12-21T16:17:37.912Z,109.47
2018-12-21T16:20:07.674Z,108.90
2018-12-21T16:22:42.093Z,108.87
2018-12-21T16:25:02.274Z,107.23
2018-12-21T16:27:28.493Z,108.10
2018-12-21T16:29:54.679Z,105.87
2018-12-21T16:32:20.900Z,106.13
2018-12-21T16:34:47.025Z,105.13
2018-12-21T16:37:13.329Z,104.87
2018-12-21T16:39:39.564Z,107.63
2018-12-21T16:44:58.278Z,103.97
2018-12-21T16:47:24.725Z,104.97
2018-12-21T16:49:51.171Z,104.93
2018-12-21T16:52:17.465Z,104.80
2018-12-21T16:54:43.872Z,103.67
2018-12-21T16:57:10.118Z,102.67
2018-12-21T16:59:36.307Z,104.40
2018-12-21T17:02:02.667Z,104.07
2018-12-21T17:04:29.069Z,103.47
2018-12-21T17:06:55.268Z,105.37
2018-12-21T17:09:21.486Z,106.20
2018-12-21T17:11:47.775Z,102.87
2018-12-21T17:14:14.308Z,105.97
2018-12-21T17:16:40.554Z,103.40
2018-12-21T17:19:07.423Z,103.00
2018-12-21T17:21:34.019Z,104.47
2018-12-21T17:24:00.330Z,104.10
2018-12-21T17:26:26.695Z,105.60
2018-12-21T17:28:53.105Z,107.53
2018-12-21T17:31:19.354Z,102.33
2018-12-21T17:33:45.611Z,104.67
2018-12-21T17:36:12.008Z,104.27
2018-12-21T17:38:38.306Z,106.57
2018-12-21T17:41:04.648Z,108.37
2018-12-21T17:43:30.842Z,107.97
2018-12-21T17:45:57.066Z,107.67
2018-12-21T17:48:23.363Z,115.23
2018-12-21T17:50:49.728Z,106.97
2018-12-21T17:53:16.031Z,112.60
2018-12-21T17:55:42.280Z,108.20
2018-12-21T17:58:08.550Z,106.00
2018-12-21T18:00:35.399Z,110.27
2018-12-21T18:03:01.681Z,108.67
2018-12-21T18:05:27.915Z,112.50
2018-12-21T18:07:54.497Z,111.50
2018-12-21T18:10:21.658Z,111.47
2018-12-21T18:12:47.885Z,107.70
2018-12-21T18:15:14.328Z,113.67
2018-12-21T18:17:42.037Z,108.63
2018-12-21T18:20:09.231Z,114.07
2018-12-21T18:22:35.466Z,106.80
2018-12-21T18:25:04.322Z,111.17
2018-12-21T18:27:31.130Z,108.87
2018-12-21T18:29:57.603Z,111.17
2018-12-21T18:32:23.972Z,107.80
2018-12-21T18:34:50.655Z,108.97
2018-12-21T18:37:18.696Z,117.53
2018-12-21T18:39:45.512Z,117.73
2018-12-21T18:42:12.821Z,114.27
2018-12-21T18:44:40.067Z,117.10
2018-12-21T18:47:06.902Z,113.77
2018-12-21T18:49:33.286Z,111.00
2018-12-21T18:51:59.870Z,114.50
2018-12-21T18:54:26.826Z,113.20
2018-12-21T18:56:53.847Z,117.03
2018-12-21T18:59:20.143Z,114.77
2018-12-21T19:01:46.346Z,116.00
2018-12-21T19:07:05.657Z,111.00
2018-12-21T19:09:38.758Z,112.20
2018-12-21T19:12:05.077Z,113.37
2018-12-21T19:14:31.407Z,114.77
2018-12-21T19:16:57.622Z,112.33
2018-12-21T19:19:23.844Z,117.33
2018-12-21T19:21:50.090Z,111.57
2018-12-21T19:24:16.525Z,116.00
2018-12-21T19:26:43.827Z,112.10
2018-12-21T19:29:10.119Z,114.03
2018-12-21T19:31:36.474Z,113.43
2018-12-21T19:34:02.940Z,118.10
2018-12-21T19:36:29.233Z,114.17
2018-12-21T19:38:55.551Z,113.60
2018-12-21T19:41:21.969Z,111.87
2018-12-21T19:43:48.187Z,109.93
2018-12-21T19:46:14.471Z,111.97
2018-12-21T19:48:41.062Z,108.37
2018-12-21T19:51:07.689Z,109.90
2018-12-21T19:53:33.943Z,108.47
2018-12-21T19:56:04.237Z,111.20
2018-12-21T19:58:31.461Z,115.23
2018-12-21T20:00:58.775Z,108.80
2018-12-21T20:03:24.964Z,109.57
2018-12-21T20:05:51.158Z,110.23
2018-12-21T20:08:17.446Z,119.93
2018-12-21T20:10:43.677Z,107.67
2018-12-21T20:13:10.181Z,106.07
2018-12-21T20:15:36.366Z,109.87
2018-12-21T20:18:02.750Z,113.33
2018-12-21T20:20:29.191Z,116.43
2018-12-21T20:22:55.583Z,111.60
2018-12-21T20:25:22.273Z,115.80
2018-12-21T20:27:48.646Z,113.80
2018-12-21T20:30:15.935Z,110.30
2018-12-21T20:32:42.298Z,112.77
2018-12-21T20:35:08.850Z,117.70
2018-12-21T20:37:35.251Z,116.90
2018-12-21T20:40:03.016Z,112.97
2018-12-21T20:42:29.667Z,112.23
2018-12-21T20:44:56.067Z,119.00
2018-12-21T20:47:22.376Z,122.43
2018-12-21T20:49:48.577Z,111.43
2018-12-21T20:52:14.975Z,113.07
2018-12-21T20:54:41.306Z,114.97
2018-12-21T20:57:07.754Z,119.70
2018-12-21T20:59:33.977Z,112.13
2018-12-21T21:02:00.764Z,113.97
2018-12-21T21:04:27.080Z,110.83
2018-12-21T21:06:53.392Z,111.97
2018-12-21T21:09:19.654Z,114.60
2018-12-21T21:11:45.867Z,114.27
2018-12-21T21:17:04.502Z,116.43
2018-12-21T21:19:30.846Z,108.93
2018-12-21T21:21:57.109Z,111.63
2018-12-21T21:24:23.337Z,110.60
2018-12-21T21:26:49.575Z,109.97
2018-12-21T21:29:15.764Z,113.77
2018-12-21T21:31:42.070Z,111.20
2018-12-21T21:34:08.346Z,107.97
2018-12-21T21:36:34.665Z,110.57
2018-12-21T21:39:00.865Z,108.83
2018-12-21T21:41:27.291Z,111.70
2018-12-21T21:43:53.549Z,107.70
2018-12-21T21:46:19.941Z,106.77
2018-12-21T21:48:46.180Z,106.10
2018-12-21T21:51:12.460Z,110.53
2018-12-21T21:53:38.668Z,110.97
2018-12-21T21:56:04.988Z,106.47
2018-12-21T21:58:31.798Z,106.10
2018-12-21T22:00:58.141Z,106.27
2018-12-21T22:03:24.321Z,104.77
2018-12-21T22:05:50.544Z,103.27
2018-12-21T22:08:16.835Z,104.50
2018-12-21T22:10:43.092Z,104.17
2018-12-21T22:13:09.493Z,105.80
2018-12-21T22:15:35.686Z,106.67
2018-12-21T22:20:54.272Z,106.67
2018-12-21T22:23:20.511Z,111.47
2018-12-21T22:25:53.250Z,106.90
2018-12-21T22:28:15.681Z,105.50
2018-12-21T22:30:42.634Z,105.20
2018-12-21T22:33:08.819Z,105.93
2018-12-21T22:35:35.192Z,107.00
2018-12-21T22:38:01.487Z,105.73
2018-12-21T22:40:27.791Z,105.10
2018-12-21T22:42:54.739Z,103.47
2018-12-21T22:45:21.037Z,102.77
2018-12-21T22:47:47.315Z,103.50
2018-12-21T22:50:13.885Z,103.70
2018-12-21T22:52:40.310Z,105.07
2018-12-21T22:55:06.847Z,104.43
2018-12-21T22:57:33.945Z,103.17
2018-12-21T23:00:00.382Z,103.50
2018-12-21T23:02:26.720Z,104.50
2018-12-21T23:04:52.959Z,106.67
2018-12-21T23:07:20.450Z,103.70
2018-12-21T23:09:46.828Z,104.27
2018-12-21T23:12:13.561Z,103.40
2018-12-21T23:14:40.972Z,103.60
2018-12-21T23:17:07.424Z,103.00
2018-12-21T23:19:35.174Z,104.50
2018-12-21T23:22:01.807Z,103.53
2018-12-21T23:24:28.027Z,103.37
2018-12-21T23:26:54.267Z,104.07
2018-12-21T23:29:20.660Z,104.17
2018-12-21T23:31:47.468Z,102.90
2018-12-21T23:34:13.756Z,102.50
2018-12-21T23:36:39.998Z,105.30
2018-12-21T23:39:06.319Z,106.33
2018-12-21T23:41:32.671Z,103.10
2018-12-21T23:43:58.952Z,101.97
2018-12-21T23:46:25.727Z,104.20
2018-12-21T23:49:04.731Z,107.67
2018-12-21T23:51:31.024Z,102.93
2018-12-21T23:59:43.660Z,103.07
